createdAt,value
2022-10-25T00:00:17.341Z,14.40
2022-10-25T00:02:52.428Z,14.40
2022-10-25T00:05:28.635Z,14.30
2022-10-25T00:08:06.815Z,14.30
2022-10-25T00:10:39.274Z,14.30
2022-10-25T00:13:16.766Z,14.20
2022-10-25T00:15:52.225Z,14.20
2022-10-25T00:18:27.729Z,14.20
2022-10-25T00:23:39.460Z,14.20
2022-10-25T00:26:17.144Z,14.10
2022-10-25T00:28:56.198Z,14.50
2022-10-25T00:31:31.331Z,14.20
2022-10-25T00:34:06.401Z,14.10
2022-10-25T00:36:43.678Z,14.20
2022-10-25T00:39:19.163Z,14.10
2022-10-25T00:41:54.863Z,14.40
2022-10-25T00:44:54.255Z,14.50
2022-10-25T00:47:48.045Z,14.00
2022-10-25T00:50:27.921Z,14.00
2022-10-25T00:53:07.917Z,14.30
2022-10-25T00:55:43.173Z,14.20
2022-10-25T00:58:19.561Z,14.00
2022-10-25T01:00:57.073Z,13.90
2022-10-25T01:03:32.454Z,13.90
2022-10-25T01:06:06.933Z,13.90
2022-10-25T01:08:42.069Z,13.90
2022-10-25T01:13:51.092Z,13.90
2022-10-25T01:16:35.373Z,13.80
2022-10-25T01:19:20.415Z,13.80
2022-10-25T01:21:55.185Z,13.80
2022-10-25T01:24:52.299Z,13.80
2022-10-25T01:27:45.228Z,13.80
2022-10-25T01:30:23.640Z,13.70
2022-10-25T01:33:13.826Z,13.90
2022-10-25T01:35:52.076Z,13.70
2022-10-25T01:38:37.059Z,13.80
2022-10-25T01:41:19.343Z,13.70
2022-10-25T01:44:00.576Z,14.00
2022-10-25T01:46:36.378Z,14.00
2022-10-25T01:49:17.814Z,13.70
2022-10-25T01:51:55.327Z,13.90
2022-10-25T01:54:31.123Z,13.70
2022-10-25T01:57:19.056Z,13.70
2022-10-25T02:00:22.287Z,13.60
2022-10-25T02:02:56.267Z,13.60
2022-10-25T02:05:36.261Z,13.60
2022-10-25T02:08:21.017Z,13.90
2022-10-25T02:10:56.549Z,13.60
2022-10-25T02:13:39.143Z,13.60
2022-10-25T02:16:15.573Z,13.50
2022-10-25T02:18:52.440Z,13.50
2022-10-25T02:21:31.050Z,13.80
2022-10-25T02:24:10.259Z,13.90
2022-10-25T02:26:45.805Z,13.40
2022-10-25T02:29:21.715Z,13.40
2022-10-25T02:31:56.709Z,13.40
2022-10-25T02:34:31.304Z,13.40
2022-10-25T02:37:09.806Z,13.40
2022-10-25T02:39:46.294Z,13.40
2022-10-25T02:42:21.957Z,13.40
2022-10-25T02:44:55.840Z,13.30
2022-10-25T02:47:30.510Z,13.40
2022-10-25T02:50:04.882Z,13.50
2022-10-25T02:52:45.268Z,13.20
2022-10-25T02:55:19.201Z,13.20
2022-10-25T02:57:55.251Z,13.10
2022-10-25T03:00:30.174Z,13.10
2022-10-25T03:03:06.919Z,13.30
2022-10-25T03:05:41.167Z,13.50
2022-10-25T03:08:21.554Z,13.00
2022-10-25T03:10:57.759Z,12.90
2022-10-25T03:13:35.321Z,12.90
2022-10-25T03:16:11.651Z,13.10
2022-10-25T03:18:47.143Z,12.90
2022-10-25T03:21:22.601Z,12.90
2022-10-25T03:24:00.190Z,12.90
2022-10-25T03:26:41.228Z,13.50
2022-10-25T03:29:15.715Z,13.30
2022-10-25T03:31:52.610Z,13.00
2022-10-25T03:34:27.823Z,13.40
2022-10-25T03:37:02.713Z,13.20
2022-10-25T03:39:40.214Z,13.60
2022-10-25T03:42:16.245Z,13.00
2022-10-25T03:44:52.645Z,12.90
2022-10-25T03:47:27.822Z,12.90
2022-10-25T03:50:03.907Z,12.90
2022-10-25T03:52:38.611Z,12.90
2022-10-25T03:55:18.469Z,12.90
2022-10-25T03:57:53.234Z,13.50
2022-10-25T04:00:28.325Z,12.90
2022-10-25T04:03:04.526Z,12.90
2022-10-25T04:05:39.508Z,13.00
2022-10-25T04:08:14.024Z,12.80
2022-10-25T04:10:50.855Z,13.20
2022-10-25T04:13:26.866Z,13.40
2022-10-25T04:16:03.322Z,12.80
2022-10-25T04:18:38.786Z,12.70
2022-10-25T04:21:13.937Z,12.70
2022-10-25T04:23:48.665Z,12.70
2022-10-25T04:26:27.095Z,12.60
2022-10-25T04:29:01.114Z,12.90
2022-10-25T04:31:36.696Z,12.60
2022-10-25T04:34:12.891Z,12.60
2022-10-25T04:36:47.323Z,12.50
2022-10-25T04:39:26.162Z,13.10
2022-10-25T04:42:04.466Z,13.10
2022-10-25T04:44:40.084Z,12.50
2022-10-25T04:47:15.384Z,12.50
2022-10-25T04:49:51.467Z,12.40
2022-10-25T04:52:25.950Z,12.40
2022-10-25T04:55:01.443Z,12.40
2022-10-25T04:57:40.190Z,12.40
2022-10-25T05:00:20.822Z,12.40
2022-10-25T05:02:55.375Z,12.30
2022-10-25T05:05:30.662Z,12.30
2022-10-25T05:08:04.167Z,12.20
2022-10-25T05:10:39.676Z,12.20
2022-10-25T05:13:17.318Z,12.20
2022-10-25T05:15:58.140Z,12.10
2022-10-25T05:18:32.067Z,12.60
2022-10-25T05:21:07.362Z,12.10
2022-10-25T05:23:42.931Z,12.10
2022-10-25T05:26:18.101Z,12.10
2022-10-25T05:28:57.192Z,12.10
2022-10-25T05:31:33.144Z,12.10
2022-10-25T05:34:09.504Z,12.10
2022-10-25T05:36:44.764Z,12.20
2022-10-25T05:39:21.469Z,12.70
2022-10-25T05:41:56.837Z,12.10
2022-10-25T05:44:34.477Z,12.10
2022-10-25T05:47:10.023Z,12.70
2022-10-25T05:49:44.389Z,12.60
2022-10-25T05:52:20.054Z,12.20
2022-10-25T05:54:56.059Z,12.20
2022-10-25T05:57:31.110Z,12.20
2022-10-25T06:00:11.206Z,12.20
2022-10-25T06:02:46.764Z,12.20
2022-10-25T06:05:22.138Z,12.20
2022-10-25T06:07:56.033Z,12.30
2022-10-25T06:10:31.384Z,12.20
2022-10-25T06:13:09.922Z,12.30
2022-10-25T06:15:47.499Z,12.30
2022-10-25T06:18:22.845Z,12.80
2022-10-25T06:20:59.804Z,12.40
2022-10-25T06:23:36.243Z,12.70
2022-10-25T06:26:12.136Z,12.50
2022-10-25T06:28:46.721Z,12.50
2022-10-25T06:31:25.617Z,12.50
2022-10-25T06:34:01.793Z,12.60
2022-10-25T06:36:36.845Z,12.60
2022-10-25T06:39:14.313Z,13.20
2022-10-25T06:41:50.086Z,13.20
2022-10-25T06:44:24.894Z,13.80
2022-10-25T06:47:17.028Z,14.30
2022-10-25T06:49:53.196Z,14.80
2022-10-25T06:52:27.858Z,15.90
2022-10-25T06:55:03.320Z,16.20
2022-10-25T06:57:39.067Z,16.30
2022-10-25T07:00:18.017Z,16.80
2022-10-25T07:03:01.049Z,17.40
2022-10-25T07:05:44.869Z,17.90
2022-10-25T07:08:20.914Z,18.30
2022-10-25T07:10:58.215Z,18.70
2022-10-25T07:13:33.869Z,18.60
2022-10-25T07:16:10.802Z,18.50
2022-10-25T07:18:48.494Z,18.40
2022-10-25T07:21:23.924Z,18.60
2022-10-25T07:24:01.357Z,18.30
2022-10-25T07:26:37.718Z,17.70
2022-10-25T07:29:12.111Z,17.50
2022-10-25T07:31:47.249Z,17.30
2022-10-25T07:34:25.845Z,17.20
2022-10-25T07:37:00.101Z,17.50
2022-10-25T07:39:35.238Z,16.90
2022-10-25T07:42:13.168Z,16.90
2022-10-25T07:44:47.991Z,16.80
2022-10-25T07:47:22.884Z,16.70
2022-10-25T07:50:01.720Z,16.70
2022-10-25T07:52:37.265Z,16.60
2022-10-25T07:55:14.101Z,16.90
2022-10-25T07:57:49.282Z,16.60
2022-10-25T08:00:24.827Z,16.50
2022-10-25T08:02:59.043Z,16.50
2022-10-25T08:05:37.570Z,16.50
2022-10-25T08:08:12.585Z,16.40
2022-10-25T08:10:47.915Z,16.60
2022-10-25T08:13:22.986Z,16.40
2022-10-25T08:15:59.529Z,16.80
2022-10-25T08:18:34.662Z,16.40
2022-10-25T08:21:12.749Z,16.40
2022-10-25T08:23:47.978Z,16.80
2022-10-25T08:26:26.443Z,16.50
2022-10-25T08:29:02.322Z,17.40
2022-10-25T08:31:36.930Z,17.40
2022-10-25T08:34:12.166Z,18.00
2022-10-25T08:36:51.868Z,18.20
2022-10-25T08:39:25.873Z,18.30
2022-10-25T08:42:00.864Z,18.20
2022-10-25T08:44:43.634Z,18.10
2022-10-25T08:47:14.286Z,18.60
2022-10-25T08:49:54.266Z,18.30
2022-10-25T08:52:33.617Z,18.40
2022-10-25T08:55:15.112Z,18.40
2022-10-25T08:57:51.093Z,18.50
2022-10-25T09:00:26.681Z,18.90
2022-10-25T09:03:02.168Z,19.30
2022-10-25T09:05:40.729Z,19.60
2022-10-25T09:08:29.066Z,19.90
2022-10-25T09:11:10.674Z,20.50
2022-10-25T09:13:51.157Z,20.40
2022-10-25T09:16:28.228Z,20.50
2022-10-25T09:19:04.013Z,20.80
2022-10-25T09:21:45.942Z,20.90
2022-10-25T09:24:25.226Z,21.00
2022-10-25T09:27:04.969Z,21.10
2022-10-25T09:29:43.065Z,21.10
2022-10-25T09:32:19.897Z,21.30
2022-10-25T09:34:54.346Z,21.20
2022-10-25T09:37:33.704Z,21.20
2022-10-25T09:40:15.315Z,21.20
2022-10-25T09:42:53.204Z,21.30
2022-10-25T09:45:30.166Z,21.30
2022-10-25T09:48:08.604Z,21.40
2022-10-25T09:50:46.390Z,21.20
2022-10-25T09:53:24.355Z,21.20
2022-10-25T09:56:03.648Z,21.30
2022-10-25T09:58:39.560Z,21.00
2022-10-25T10:01:15.594Z,20.90
2022-10-25T10:03:54.736Z,20.90
2022-10-25T10:06:37.904Z,21.10
2022-10-25T10:09:13.987Z,20.80
2022-10-25T10:11:52.084Z,20.80
2022-10-25T10:14:30.586Z,20.80
2022-10-25T10:17:05.210Z,20.90
2022-10-25T10:19:44.418Z,20.70
2022-10-25T10:22:21.870Z,20.60
2022-10-25T10:25:02.467Z,20.40
2022-10-25T10:27:40.712Z,20.30
2022-10-25T10:30:24.184Z,20.20
2022-10-25T10:33:02.618Z,20.10
2022-10-25T10:35:38.044Z,20.10
2022-10-25T10:38:26.202Z,20.10
2022-10-25T10:41:20.134Z,19.90
2022-10-25T10:44:10.005Z,19.90
2022-10-25T10:46:49.537Z,19.70
2022-10-25T10:49:25.260Z,19.50
2022-10-25T10:52:03.322Z,19.20
2022-10-25T10:54:38.979Z,19.10
2022-10-25T10:57:34.932Z,18.90
2022-10-25T11:00:16.344Z,18.70
2022-10-25T11:05:30.511Z,18.70
2022-10-25T11:08:06.088Z,18.80
2022-10-25T11:10:40.387Z,18.90
2022-10-25T11:13:16.560Z,18.90
2022-10-25T11:16:24.345Z,18.90
2022-10-25T11:19:22.082Z,19.00
2022-10-25T11:22:12.222Z,19.00
2022-10-25T11:24:53.846Z,18.90
2022-10-25T11:27:45.239Z,18.90
2022-10-25T11:30:20.888Z,19.00
2022-10-25T11:33:19.026Z,19.00
2022-10-25T11:35:51.161Z,19.00
2022-10-25T11:38:31.342Z,19.00
2022-10-25T11:41:08.653Z,19.10
2022-10-25T11:43:51.581Z,19.10
2022-10-25T11:46:32.325Z,18.90
2022-10-25T11:49:18.239Z,19.20
2022-10-25T11:51:57.154Z,19.20
2022-10-25T11:54:37.569Z,19.30
2022-10-25T11:57:16.111Z,19.30
2022-10-25T11:59:57.742Z,19.40
2022-10-25T12:03:12.457Z,19.40
2022-10-25T12:05:49.962Z,19.30
2022-10-25T12:08:29.682Z,19.20
2022-10-25T12:11:09.198Z,19.60
2022-10-25T12:13:44.072Z,19.20
2022-10-25T12:16:20.155Z,19.50
2022-10-25T12:18:54.537Z,19.40
2022-10-25T12:21:31.258Z,19.20
2022-10-25T12:24:07.211Z,19.20
2022-10-25T12:26:45.778Z,19.20
2022-10-25T12:29:21.821Z,19.20
2022-10-25T12:31:58.258Z,19.20
2022-10-25T12:34:39.741Z,19.20
2022-10-25T12:37:17.178Z,19.30
2022-10-25T12:39:52.710Z,19.50
2022-10-25T12:42:31.461Z,19.50
2022-10-25T12:45:21.863Z,19.20
2022-10-25T12:48:09.489Z,19.20
2022-10-25T12:50:43.178Z,19.20
2022-10-25T12:53:43.684Z,19.20
2022-10-25T12:56:23.597Z,19.20
2022-10-25T12:59:07.339Z,19.10
2022-10-25T13:01:59.445Z,19.20
2022-10-25T13:04:50.882Z,19.10
2022-10-25T13:07:25.531Z,19.10
2022-10-25T13:10:06.716Z,19.20
2022-10-25T13:12:41.386Z,18.90
2022-10-25T13:15:25.205Z,18.80
2022-10-25T13:18:05.964Z,18.80
2022-10-25T13:20:54.299Z,18.70
2022-10-25T13:23:59.794Z,18.70
2022-10-25T13:26:50.322Z,18.60
2022-10-25T13:30:04.362Z,18.50
2022-10-25T13:32:42.242Z,18.40
2022-10-25T13:35:46.376Z,18.30
2022-10-25T13:38:23.937Z,18.30
2022-10-25T13:41:25.871Z,18.70
2022-10-25T13:44:02.758Z,18.20
2022-10-25T13:46:38.927Z,18.20
2022-10-25T13:49:35.008Z,18.20
2022-10-25T13:52:11.281Z,18.10
2022-10-25T13:54:50.575Z,18.10
2022-10-25T13:57:54.325Z,18.00
2022-10-25T14:00:32.369Z,17.90
2022-10-25T14:03:35.176Z,17.90
2022-10-25T14:06:25.918Z,17.80
2022-10-25T14:09:08.883Z,17.80
2022-10-25T14:11:48.480Z,17.70
2022-10-25T14:14:30.916Z,18.10
2022-10-25T14:17:13.055Z,17.70
2022-10-25T14:19:49.023Z,17.60
2022-10-25T14:22:32.884Z,17.60
2022-10-25T14:25:09.353Z,17.60
2022-10-25T14:27:44.320Z,17.60
2022-10-25T14:30:29.223Z,17.60
2022-10-25T14:33:04.702Z,17.50
2022-10-25T14:35:41.091Z,17.60
2022-10-25T14:38:21.443Z,17.50
2022-10-25T14:40:57.421Z,17.50
2022-10-25T14:43:32.798Z,17.40
2022-10-25T14:46:13.694Z,17.40
2022-10-25T14:48:51.259Z,17.40
2022-10-25T14:51:27.511Z,17.40
2022-10-25T14:54:05.944Z,17.40
2022-10-25T14:56:41.140Z,17.40
2022-10-25T14:59:19.914Z,17.40
2022-10-25T15:01:55.222Z,17.40
2022-10-25T15:04:30.423Z,17.50
2022-10-25T15:07:04.642Z,17.50
2022-10-25T15:09:43.007Z,17.50
2022-10-25T15:12:18.999Z,17.40
2022-10-25T15:14:53.690Z,17.40
2022-10-25T15:17:29.113Z,17.40
2022-10-25T15:20:09.787Z,17.30
2022-10-25T15:22:45.632Z,17.30
2022-10-25T15:25:32.014Z,17.20
2022-10-25T15:28:13.510Z,17.10
2022-10-25T15:31:05.951Z,17.10
2022-10-25T15:33:41.601Z,17.00
2022-10-25T15:36:22.009Z,17.00
2022-10-25T15:39:11.685Z,16.90
2022-10-25T15:41:51.708Z,16.80
2022-10-25T15:44:26.230Z,16.80
2022-10-25T15:46:59.437Z,16.70
2022-10-25T15:49:34.340Z,16.60
2022-10-25T15:52:10.383Z,16.60
2022-10-25T15:54:44.997Z,16.50
2022-10-25T15:57:19.845Z,16.50
2022-10-25T15:59:54.680Z,16.50
2022-10-25T16:02:32.810Z,16.40
2022-10-25T16:05:08.188Z,16.40
2022-10-25T16:07:43.395Z,16.40
2022-10-25T16:10:18.731Z,16.40
2022-10-25T16:12:58.656Z,16.30
2022-10-25T16:15:34.301Z,16.30
2022-10-25T16:18:11.574Z,16.20
2022-10-25T16:20:47.139Z,16.20
2022-10-25T16:23:25.174Z,16.20
2022-10-25T16:25:59.526Z,16.20
2022-10-25T16:28:40.762Z,16.20
2022-10-25T16:31:15.700Z,16.10
2022-10-25T16:33:50.234Z,16.10
2022-10-25T16:36:25.330Z,16.00
2022-10-25T16:39:01.341Z,16.00
2022-10-25T16:41:37.713Z,15.90
2022-10-25T16:44:15.875Z,15.90
2022-10-25T16:46:52.610Z,15.90
2022-10-25T16:49:27.590Z,15.90
2022-10-25T16:52:04.117Z,15.80
2022-10-25T16:54:39.664Z,15.80
2022-10-25T16:57:13.715Z,15.70
2022-10-25T16:59:51.714Z,15.70
2022-10-25T17:02:26.467Z,15.70
2022-10-25T17:05:00.706Z,15.70
2022-10-25T17:07:35.134Z,15.70
2022-10-25T17:10:09.856Z,15.70
2022-10-25T17:12:52.130Z,15.70
2022-10-25T17:15:29.291Z,15.70
2022-10-25T17:18:03.552Z,15.70
2022-10-25T17:20:37.985Z,15.70
2022-10-25T17:23:11.709Z,15.70
2022-10-25T17:25:45.576Z,15.70
2022-10-25T17:28:19.405Z,15.70
2022-10-25T17:30:57.128Z,15.70
2022-10-25T17:33:30.891Z,15.60
2022-10-25T17:36:07.810Z,15.60
2022-10-25T17:38:41.677Z,15.60
2022-10-25T17:41:15.761Z,15.60
2022-10-25T17:43:52.047Z,15.50
2022-10-25T17:46:33.663Z,15.50
2022-10-25T17:49:07.849Z,15.50
2022-10-25T17:51:44.081Z,15.50
2022-10-25T17:54:19.145Z,15.50
2022-10-25T17:56:56.011Z,15.40
2022-10-25T17:59:30.651Z,15.40
2022-10-25T18:02:07.424Z,15.40
2022-10-25T18:05:01.223Z,15.30
2022-10-25T18:07:35.734Z,15.30
2022-10-25T18:10:09.737Z,15.30
2022-10-25T18:12:43.636Z,15.20
2022-10-25T18:15:17.198Z,15.20
2022-10-25T18:17:52.209Z,15.20
2022-10-25T18:20:25.579Z,15.10
2022-10-25T18:22:59.443Z,15.10
2022-10-25T18:25:33.760Z,15.00
2022-10-25T18:28:07.486Z,15.00
2022-10-25T18:30:41.711Z,15.00
2022-10-25T18:33:23.741Z,14.90
2022-10-25T18:36:01.776Z,14.90
2022-10-25T18:38:36.587Z,14.80
2022-10-25T18:41:10.873Z,14.80
2022-10-25T18:43:45.271Z,14.70
2022-10-25T18:46:21.504Z,14.60
2022-10-25T18:48:59.011Z,14.60
2022-10-25T18:51:34.953Z,14.50
2022-10-25T18:54:09.397Z,14.50
2022-10-25T18:56:44.395Z,14.40
2022-10-25T18:59:19.518Z,14.40
2022-10-25T19:01:55.070Z,14.30
2022-10-25T19:04:29.363Z,14.30
2022-10-25T19:07:03.899Z,14.20
2022-10-25T19:09:38.579Z,14.10
2022-10-25T19:12:12.980Z,14.10
2022-10-25T19:17:24.411Z,14.00
2022-10-25T19:19:59.644Z,14.00
2022-10-25T19:22:39.519Z,14.00
2022-10-25T19:25:19.082Z,13.90
2022-10-25T19:27:57.104Z,13.90
2022-10-25T19:30:35.490Z,13.80
2022-10-25T19:33:14.786Z,13.80
2022-10-25T19:35:49.556Z,13.70
2022-10-25T19:38:28.485Z,13.70
2022-10-25T19:41:03.742Z,13.70
2022-10-25T19:43:38.042Z,13.60
2022-10-25T19:46:16.199Z,13.60
2022-10-25T19:48:49.508Z,13.50
2022-10-25T19:51:24.513Z,13.50
2022-10-25T19:54:04.593Z,13.40
2022-10-25T19:56:39.787Z,13.40
2022-10-25T19:59:13.962Z,13.30
2022-10-25T20:01:52.922Z,13.20
2022-10-25T20:04:27.260Z,13.20
2022-10-25T20:07:02.581Z,13.10
2022-10-25T20:09:41.455Z,13.10
2022-10-25T20:12:16.559Z,12.90
2022-10-25T20:14:53.675Z,12.90
2022-10-25T20:17:28.932Z,12.90
2022-10-25T20:20:10.282Z,12.80
2022-10-25T20:22:42.755Z,12.70
2022-10-25T20:25:21.043Z,12.70
2022-10-25T20:27:55.931Z,12.70
2022-10-25T20:30:30.312Z,12.70
2022-10-25T20:33:04.879Z,12.60
2022-10-25T20:35:39.678Z,12.60
2022-10-25T20:38:15.031Z,12.60
2022-10-25T20:40:55.984Z,12.50
2022-10-25T20:43:31.782Z,12.50
2022-10-25T20:46:08.009Z,12.50
2022-10-25T20:48:42.688Z,12.40
2022-10-25T20:51:16.949Z,12.40
2022-10-25T20:53:53.934Z,12.30
2022-10-25T20:56:31.030Z,12.30
2022-10-25T20:59:05.501Z,12.20
2022-10-25T21:01:41.787Z,12.20
2022-10-25T21:04:25.979Z,12.20
2022-10-25T21:07:10.489Z,12.10
2022-10-25T21:09:49.246Z,12.00
2022-10-25T21:12:28.498Z,11.90
2022-10-25T21:15:10.990Z,11.90
2022-10-25T21:17:49.117Z,11.90
2022-10-25T21:20:24.425Z,11.80
2022-10-25T21:23:00.471Z,11.80
2022-10-25T21:25:35.434Z,11.80
2022-10-25T21:28:13.595Z,11.70
2022-10-25T21:30:48.361Z,11.70
2022-10-25T21:33:22.767Z,11.70
2022-10-25T21:35:57.020Z,11.70
2022-10-25T21:38:32.717Z,11.60
2022-10-25T21:41:12.543Z,11.60
2022-10-25T21:43:50.077Z,11.50
2022-10-25T21:46:24.386Z,11.50
2022-10-25T21:48:58.699Z,11.40
2022-10-25T21:51:34.993Z,11.30
2022-10-25T21:54:09.621Z,11.30
2022-10-25T21:56:45.642Z,11.30
2022-10-25T21:59:23.696Z,11.20
2022-10-25T22:01:58.745Z,11.10
2022-10-25T22:04:35.450Z,11.10
2022-10-25T22:07:11.992Z,11.10
2022-10-25T22:09:47.477Z,11.00
2022-10-25T22:12:21.681Z,11.00
2022-10-25T22:14:59.097Z,11.00
2022-10-25T22:17:33.735Z,10.90
2022-10-25T22:20:13.972Z,10.90
2022-10-25T22:22:48.303Z,10.80
2022-10-25T22:25:23.488Z,10.80
2022-10-25T22:27:58.250Z,10.70
2022-10-25T22:30:35.635Z,10.70
2022-10-25T22:33:13.215Z,10.70
2022-10-25T22:35:46.543Z,10.60
2022-10-25T22:38:22.318Z,10.60
2022-10-25T22:41:00.204Z,10.50
2022-10-25T22:43:36.210Z,10.50
2022-10-25T22:46:14.617Z,10.40
2022-10-25T22:48:50.570Z,10.40
2022-10-25T22:51:27.328Z,10.30
2022-10-25T22:54:01.024Z,10.30
2022-10-25T22:56:35.109Z,10.30
2022-10-25T22:59:09.937Z,10.20
2022-10-25T23:01:46.587Z,10.20
2022-10-25T23:04:23.167Z,10.20
2022-10-25T23:06:57.658Z,10.20
2022-10-25T23:09:32.862Z,10.10
2022-10-25T23:12:07.328Z,10.10
2022-10-25T23:14:40.860Z,10.10
2022-10-25T23:17:18.161Z,10.00
2022-10-25T23:19:55.166Z,10.00
2022-10-25T23:22:29.580Z,10.00
2022-10-25T23:25:04.218Z,10.00
2022-10-25T23:27:38.568Z,9.90
2022-10-25T23:30:13.679Z,9.90
2022-10-25T23:32:51.181Z,9.90
2022-10-25T23:35:25.655Z,9.80
2022-10-25T23:38:01.851Z,9.80
2022-10-25T23:40:37.407Z,9.70
2022-10-25T23:43:13.410Z,9.70
2022-10-25T23:45:49.013Z,9.70
2022-10-25T23:48:25.525Z,9.70
2022-10-25T23:53:35.786Z,9.70
2022-10-25T23:56:10.726Z,9.70
2022-10-25T23:58:45.687Z,9.70
